Terminal Aerodrome Forecast
Issued by NWS

Home | Current Version | Previous Version | Text Only | Print | Product List | Glossary On
Versions: 1 2 3 4 5 6 7 8 9 10 11 12 13 14 15 16 17 18 19 20 21 22 23 24 25 26 27 28
000
FTUS44 KOUN 060240 AAA
TAFWWR
TAF AMD
KWWR 060240Z 0603/0624 15012G20KT P6SM OVC007
      TEMPO 0603/0605 4SM -SHRA OVC015
     FM061400 18020G30KT P6SM BKN020
     FM061900 18022G32KT P6SM BKN040=

USA.gov is the U.S. government's official web portal to all federal, state and local government web resources and services.